Time;durP1;ratioP1;P1;durP2;ratioP2;P2;SDS_P1;SDS_P2;PMS_P1;PMS_P2;Temp;Humidity;BMP_temperature;BMP_pressure;BME280_temperature;BME280_humidity;BME280_pressure;Samples;Min_cycle;Max_cycle;Signal;HPM_P1;HPM_P2
2023/06/12 00:01:12;;;;;;;;;;;;;;;22.13;31.12;97314.50;4985923;28;1282;-77
2023/06/12 00:03:40;;;;;;;;;;;;;;;22.22;30.87;97302.38;4985228;28;1910;-77
2023/06/12 00:06:06;;;;;;;;;;;;;;;22.24;30.75;97309.19;5001980;28;892;-76
2023/06/12 00:08:34;;;;;;;;;;;;;;;22.05;31.32;97308.28;4984795;28;1063;-76
2023/06/12 00:11:00;;;;;;;;;;;;;;;22.06;31.34;97297.72;4986214;28;1094;-76
2023/06/12 00:13:26;;;;;;;;;;;;;;;22.24;30.91;97303.50;4997646;28;1001;-76
2023/06/12 00:15:51;;;;;;;;;;;;;;;21.99;31.52;97309.34;4982645;28;914;-77
2023/06/12 00:18:17;;;;;;;;;;;;;;;22.11;30.95;97308.47;4978268;28;1256;-76
2023/06/12 00:20:43;;;;;;;;;;;;;;;22.02;31.25;97314.06;4962615;28;1006;-76
2023/06/12 00:23:11;;;;;;;;;;;;;;;22.27;31.05;97313.91;4946668;28;1907;-76
2023/06/12 00:25:37;;;;;;;;;;;;;;;22.10;31.29;97318.22;4946719;28;966;-76
2023/06/12 00:28:03;;;;;;;;;;;;;;;22.10;31.04;97316.19;4962071;28;887;-76
2023/06/12 00:30:28;;;;;;;;;;;;;;;22.21;30.97;97323.50;4950122;28;1159;-76
2023/06/12 00:32:54;;;;;;;;;;;;;;;22.00;31.52;97316.59;4949535;28;1151;-76
2023/06/12 00:35:20;;;;;;;;;;;;;;;22.24;30.92;97326.19;4981545;28;1006;-77
2023/06/12 00:37:49;;;;;;;;;;;;;;;22.03;31.42;97321.34;4965468;28;1150;-76
2023/06/12 00:40:14;;;;;;;;;;;;;;;22.11;31.36;97322.66;4981387;28;1198;-76
2023/06/12 00:42:45;;;;;;;;;;;;;;;22.13;31.29;97334.31;4949637;28;1081;-76
2023/06/12 00:45:15;;;;;;;;;;;;;;;22.18;31.21;97328.06;4945879;28;1915;-77
2023/06/12 00:47:41;;;;;;;;;;;;;;;22.08;31.25;97320.72;4962385;28;1045;-76
2023/06/12 00:50:09;;;;;;;;;;;;;;;22.18;31.31;97330.88;4939828;29;1308;-76
2023/06/12 00:52:35;;;;;;;;;;;;;;;22.09;31.49;97325.13;4942931;29;1141;-76
2023/06/12 00:55:01;;;;;;;;;;;;;;;22.20;31.24;97325.53;4942592;29;1269;-76
2023/06/12 00:57:27;;;;;;;;;;;;;;;22.15;31.30;97334.63;4927112;29;1320;-76
2023/06/12 00:59:53;;;;;;;;;;;;;;;22.21;31.21;97332.78;4942368;29;1007;-76
2023/06/12 01:02:20;;;;;;;;;;;;;;;22.25;31.28;97333.44;4943072;29;1133;-76
2023/06/12 01:04:49;;;;;;;;;;;;;;;22.00;31.54;97331.53;4926756;29;1911;-76
2023/06/12 01:07:45;;;;;;;;;;;;;;;22.09;31.56;97330.81;4927589;29;1102;-76
2023/06/12 01:10:14;;;;;;;;;;;;;;;22.26;31.19;97329.34;4920169;29;1178;-76
2023/06/12 01:12:40;;;;;;;;;;;;;;;22.10;31.30;97326.72;4920343;29;1377;-77
2023/06/12 01:15:06;;;;;;;;;;;;;;;22.25;31.08;97339.09;4905471;29;1086;-76
2023/06/12 01:17:31;;;;;;;;;;;;;;;22.24;31.02;97343.19;4939346;29;1141;-76
2023/06/12 01:20:11;;;;;;;;;;;;;;;22.35;31.02;97343.56;4921041;29;1212;-77
2023/06/12 01:22:40;;;;;;;;;;;;;;;22.24;31.28;97343.19;4927173;29;1234;-77
2023/06/12 01:25:23;;;;;;;;;;;;;;;22.44;30.82;97344.84;4958002;29;1919;-77
2023/06/12 01:27:56;;;;;;;;;;;;;;;22.29;30.95;97345.41;4942207;29;1140;-76
2023/06/12 01:30:41;;;;;;;;;;;;;;;22.32;30.95;97350.13;4958111;29;1184;-77
2023/06/12 01:33:07;;;;;;;;;;;;;;;22.35;30.74;97343.56;4941808;29;1200;-75
2023/06/12 01:35:35;;;;;;;;;;;;;;;22.21;31.26;97340.50;4910886;29;1211;-76
2023/06/12 01:38:07;;;;;;;;;;;;;;;22.11;31.42;97339.66;4941483;29;1802;-76
2023/06/12 01:40:32;;;;;;;;;;;;;;;21.92;31.64;97349.28;4926403;29;1366;-76
2023/06/12 01:42:58;;;;;;;;;;;;;;;21.93;31.42;97356.53;4942135;29;1082;-77
2023/06/12 01:45:24;;;;;;;;;;;;;;;22.18;30.81;97353.56;4925857;29;1915;-76
2023/06/12 01:47:49;;;;;;;;;;;;;;;22.24;31.05;97365.84;4900836;29;1110;-76
2023/06/12 01:50:18;;;;;;;;;;;;;;;22.12;31.24;97355.38;4879326;29;1197;-76
2023/06/12 01:52:44;;;;;;;;;;;;;;;22.40;30.72;97367.66;4907416;29;1252;-76
2023/06/12 01:55:10;;;;;;;;;;;;;;;22.24;30.90;97363.03;4907031;29;1252;-76
2023/06/12 01:57:38;;;;;;;;;;;;;;;22.28;30.76;97360.06;4938631;29;1490;-76
2023/06/12 02:00:04;;;;;;;;;;;;;;;22.26;30.78;97363.34;4907130;29;1140;-76
2023/06/12 02:02:45;;;;;;;;;;;;;;;22.24;31.05;97363.03;4943732;29;938;-76
2023/06/12 02:05:11;;;;;;;;;;;;;;;22.22;30.83;97361.91;4957150;29;1972;-75
2023/06/12 02:07:37;;;;;;;;;;;;;;;22.32;30.53;97366.34;4957640;29;968;-77
2023/06/12 02:10:07;;;;;;;;;;;;;;;22.32;30.59;97372.81;4938291;29;1074;-76
2023/06/12 02:12:33;;;;;;;;;;;;;;;22.31;30.70;97371.25;4922560;29;954;-76
2023/06/12 02:15:00;;;;;;;;;;;;;;;22.17;30.59;97368.97;4937955;29;1179;-77
2023/06/12 02:17:26;;;;;;;;;;;;;;;22.29;30.40;97356.75;4907225;29;1185;-76
2023/06/12 02:19:51;;;;;;;;;;;;;;;22.27;30.79;97359.25;4938233;29;1319;-76
2023/06/12 02:22:17;;;;;;;;;;;;;;;22.11;31.00;97362.31;4923189;29;1631;-76
2023/06/12 02:24:43;;;;;;;;;;;;;;;22.34;30.47;97364.66;4948938;28;1907;-76
2023/06/12 02:27:10;;;;;;;;;;;;;;;22.29;30.46;97368.09;4977347;28;941;-76
2023/06/12 02:29:36;;;;;;;;;;;;;;;22.12;30.84;97368.78;4960300;28;1375;-76
2023/06/12 02:32:02;;;;;;;;;;;;;;;22.23;30.46;97375.63;4945033;28;1128;-76
2023/06/12 02:34:29;;;;;;;;;;;;;;;22.24;30.45;97377.19;4960671;28;1176;-76
2023/06/12 02:36:55;;;;;;;;;;;;;;;22.13;30.81;97370.38;4944990;28;1125;-76
2023/06/12 02:39:24;;;;;;;;;;;;;;;22.15;30.58;97374.31;4945103;28;1157;-76
2023/06/12 02:41:50;;;;;;;;;;;;;;;22.28;30.36;97371.41;4977007;28;1228;-76
2023/06/12 02:44:16;;;;;;;;;;;;;;;22.31;30.33;97376.91;4982636;28;1965;-76
2023/06/12 02:46:52;;;;;;;;;;;;;;;22.32;30.39;97378.47;4967464;28;1470;-77
2023/06/12 02:49:18;;;;;;;;;;;;;;;22.23;30.64;97384.13;4942015;29;1065;-76
2023/06/12 02:51:45;;;;;;;;;;;;;;;22.29;30.61;97390.75;4926344;29;1171;-76
2023/06/12 02:54:11;;;;;;;;;;;;;;;22.23;30.69;97389.78;4941898;29;1055;-77
2023/06/12 02:56:37;;;;;;;;;;;;;;;22.33;30.66;97384.97;4926213;29;1410;-77
2023/06/12 02:59:03;;;;;;;;;;;;;;;22.44;30.40;97391.00;4941904;29;1183;-77
2023/06/12 03:01:29;;;;;;;;;;;;;;;22.26;30.87;97391.69;4926474;29;1278;-77
2023/06/12 03:03:56;;;;;;;;;;;;;;;22.20;30.58;97393.53;4909910;29;1899;-76
2023/06/12 03:06:26;;;;;;;;;;;;;;;22.05;31.20;97395.31;4942033;29;862;-77
2023/06/12 03:08:55;;;;;;;;;;;;;;;22.31;30.79;97393.13;4926447;29;1161;-77
2023/06/12 03:11:21;;;;;;;;;;;;;;;22.21;30.47;97389.44;4926634;29;1082;-77
2023/06/12 03:13:47;;;;;;;;;;;;;;;22.41;30.43;97391.91;4925445;29;1186;-77
2023/06/12 03:16:14;;;;;;;;;;;;;;;22.35;30.27;97388.91;4942274;29;1121;-76
2023/06/12 03:18:40;;;;;;;;;;;;;;;21.91;31.16;97393.00;4941488;29;972;-78
2023/06/12 03:21:05;;;;;;;;;;;;;;;22.10;30.97;97406.03;4990945;28;969;-77
2023/06/12 03:23:31;;;;;;;;;;;;;;;22.43;30.58;97402.78;4973272;28;1957;-77
2023/06/12 03:25:57;;;;;;;;;;;;;;;22.12;30.76;97414.88;4961820;29;1001;-76
2023/06/12 03:28:23;;;;;;;;;;;;;;;22.21;30.85;97412.13;4960629;29;1332;-76
2023/06/12 03:30:49;;;;;;;;;;;;;;;22.05;30.91;97406.63;4961122;29;1355;-77
2023/06/12 03:33:15;;;;;;;;;;;;;;;22.16;31.07;97409.88;4960326;29;1081;-77
2023/06/12 03:35:42;;;;;;;;;;;;;;;22.25;30.92;97412.78;4960754;29;1445;-77
2023/06/12 03:38:08;;;;;;;;;;;;;;;22.22;30.63;97419.34;4960618;29;1134;-76
2023/06/12 03:40:33;;;;;;;;;;;;;;;22.19;31.20;97414.63;4969163;28;1275;-77
2023/06/12 03:42:59;;;;;;;;;;;;;;;22.40;30.85;97417.91;4979439;28;1341;-76
2023/06/12 03:45:27;;;;;;;;;;;;;;;22.44;30.88;97418.56;4979754;28;1923;-77
2023/06/12 03:47:54;;;;;;;;;;;;;;;22.31;30.81;97422.25;4964295;28;1341;-76
2023/06/12 03:50:22;;;;;;;;;;;;;;;22.25;31.13;97418.44;4944531;29;1173;-77
2023/06/12 03:52:49;;;;;;;;;;;;;;;22.56;30.84;97417.66;4960596;29;1187;-77
2023/06/12 03:55:17;;;;;;;;;;;;;;;21.90;31.84;97426.22;4929010;29;1438;-77
2023/06/12 03:57:43;;;;;;;;;;;;;;;22.04;31.60;97413.56;4944148;29;976;-76
2023/06/12 04:00:09;;;;;;;;;;;;;;;22.30;31.16;97414.22;4951119;28;1136;-76
2023/06/12 04:02:43;;;;;;;;;;;;;;;22.29;31.49;97421.16;4998505;28;879;-77
2023/06/12 04:05:09;;;;;;;;;;;;;;;22.50;31.02;97422.38;4998614;28;1910;-76
2023/06/12 04:07:38;;;;;;;;;;;;;;;22.56;31.06;97432.63;4999237;28;1357;-77
2023/06/12 04:10:04;;;;;;;;;;;;;;;22.48;31.04;97424.84;4998880;28;1212;-77
2023/06/12 04:12:29;;;;;;;;;;;;;;;22.33;31.36;97422.59;4999596;28;919;-76
2023/06/12 04:14:55;;;;;;;;;;;;;;;22.51;31.14;97423.94;5002128;28;1222;-77
2023/06/12 04:17:21;;;;;;;;;;;;;;;22.28;31.77;97426.03;5002671;28;1098;-77
2023/06/12 04:19:48;;;;;;;;;;;;;;;22.50;31.38;97422.38;5001707;28;1195;-77
2023/06/12 04:22:15;;;;;;;;;;;;;;;22.33;31.65;97418.97;5002931;28;1100;-76
2023/06/12 04:24:42;;;;;;;;;;;;;;;22.28;32.05;97417.53;5001558;28;1910;-76
2023/06/12 04:27:11;;;;;;;;;;;;;;;22.35;31.49;97417.25;5002592;28;1232;-77
2023/06/12 04:29:37;;;;;;;;;;;;;;;22.38;31.77;97420.38;5018229;28;947;-76
2023/06/12 04:32:06;;;;;;;;;;;;;;;22.32;32.00;97425.88;5034489;28;1074;-76
2023/06/12 04:34:39;;;;;;;;;;;;;;;22.20;32.08;97427.53;4997508;28;958;-77
2023/06/12 04:37:08;;;;;;;;;;;;;;;22.36;31.94;97440.72;4943703;29;958;-77
2023/06/12 04:39:41;;;;;;;;;;;;;;;22.30;32.04;97434.84;4927951;29;1204;-76
2023/06/12 04:42:08;;;;;;;;;;;;;;;22.36;31.86;97429.38;4928046;29;1183;-77
2023/06/12 04:44:35;;;;;;;;;;;;;;;22.48;31.78;97430.53;4927511;29;1922;-76
2023/06/12 04:47:11;;;;;;;;;;;;;;;22.21;32.29;97434.78;4928156;29;1158;-76
2023/06/12 04:49:37;;;;;;;;;;;;;;;22.21;32.22;97440.47;4943090;29;980;-76
2023/06/12 04:52:05;;;;;;;;;;;;;;;22.23;32.34;97437.19;4922231;29;1114;-77
2023/06/12 04:54:41;;;;;;;;;;;;;;;22.32;32.08;97434.38;4889472;29;1223;-75
2023/06/12 04:57:08;;;;;;;;;;;;;;;22.29;32.12;97438.16;4891241;29;1151;-77
2023/06/12 04:59:37;;;;;;;;;;;;;;;22.51;31.72;97438.09;4889635;29;1150;-77
2023/06/12 05:02:04;;;;;;;;;;;;;;;22.38;32.07;97443.06;4905491;29;1126;-76
2023/06/12 05:04:30;;;;;;;;;;;;;;;22.39;31.88;97433.34;4892509;29;1911;-77
2023/06/12 05:06:56;;;;;;;;;;;;;;;22.60;31.76;97443.84;4962560;28;998;-76
2023/06/12 05:09:22;;;;;;;;;;;;;;;22.59;31.51;97443.03;4984643;28;1270;-77
2023/06/12 05:11:48;;;;;;;;;;;;;;;22.52;31.98;97439.69;4997961;28;1308;-77
2023/06/12 05:14:13;;;;;;;;;;;;;;;22.33;32.16;97442.44;4965408;28;1266;-77
2023/06/12 05:16:39;;;;;;;;;;;;;;;22.33;32.47;97436.78;4981863;28;1223;-77
2023/06/12 05:19:06;;;;;;;;;;;;;;;22.12;32.66;97445.28;4981720;28;988;-77
2023/06/12 05:21:33;;;;;;;;;;;;;;;22.26;32.63;97442.69;4982600;28;1079;-77
2023/06/12 05:23:59;;;;;;;;;;;;;;;22.51;31.86;97452.28;5000093;28;1915;-76
2023/06/12 05:26:25;;;;;;;;;;;;;;;22.59;31.75;97448.72;5020393;28;1575;-77
2023/06/12 05:28:52;;;;;;;;;;;;;;;22.57;31.82;97447.59;5036244;28;1272;-76
2023/06/12 05:31:18;;;;;;;;;;;;;;;22.51;31.86;97452.28;4978392;28;1156;-77
2023/06/12 05:33:45;;;;;;;;;;;;;;;22.55;31.72;97458.63;4977648;28;1400;-77
2023/06/12 05:36:11;;;;;;;;;;;;;;;22.39;31.85;97456.78;4979058;28;834;-76
2023/06/12 05:38:38;;;;;;;;;;;;;;;22.56;31.76;97460.97;4961474;28;1323;-77
2023/06/12 05:41:04;;;;;;;;;;;;;;;22.38;32.29;97460.06;4962517;28;1203;-77
2023/06/12 05:43:30;;;;;;;;;;;;;;;22.32;32.27;97469.19;4992791;28;1914;-77
2023/06/12 05:45:56;;;;;;;;;;;;;;;22.47;32.05;97462.97;4981821;28;1158;-77
2023/06/12 05:48:21;;;;;;;;;;;;;;;22.45;32.02;97465.50;4980324;28;1128;-77
2023/06/12 05:50:47;;;;;;;;;;;;;;;22.28;32.62;97465.72;4981367;28;1100;-77
2023/06/12 05:53:12;;;;;;;;;;;;;;;22.25;32.56;97475.13;4980538;28;1120;-77
2023/06/12 05:55:38;;;;;;;;;;;;;;;22.18;32.54;97466.13;4981159;28;1309;-77
2023/06/12 05:58:04;;;;;;;;;;;;;;;22.30;32.09;97470.91;4980441;28;1361;-76
2023/06/12 06:00:30;;;;;;;;;;;;;;;22.22;32.55;97470.38;4980970;28;1139;-77
2023/06/12 06:03:00;;;;;;;;;;;;;;;22.22;32.62;97476.03;5013499;28;1136;-76
2023/06/12 06:05:31;;;;;;;;;;;;;;;22.41;32.17;97473.34;5036478;28;1910;-77
2023/06/12 06:08:04;;;;;;;;;;;;;;;22.39;32.16;97462.47;5020165;28;1323;-77
2023/06/12 06:10:31;;;;;;;;;;;;;;;22.58;31.38;97474.69;5019438;28;1231;-77
2023/06/12 06:12:57;;;;;;;;;;;;;;;22.39;32.07;97473.00;5019818;28;1162;-77
2023/06/12 06:15:23;;;;;;;;;;;;;;;22.69;31.66;97469.41;5019653;28;1272;-77
2023/06/12 06:17:48;;;;;;;;;;;;;;;22.58;31.67;97474.69;4999873;28;1120;-77
2023/06/12 06:20:15;;;;;;;;;;;;;;;22.48;31.96;97467.38;4999785;28;1312;-77
2023/06/12 06:22:42;;;;;;;;;;;;;;;22.31;32.24;97476.09;5000226;28;1237;-77
2023/06/12 06:25:10;;;;;;;;;;;;;;;22.17;32.37;97479.47;5012589;28;1981;-76
2023/06/12 06:27:35;;;;;;;;;;;;;;;22.24;32.20;97476.38;4957997;28;1080;-77
2023/06/12 06:30:04;;;;;;;;;;;;;;;22.27;32.31;97472.59;4941713;29;1369;-77
2023/06/12 06:32:30;;;;;;;;;;;;;;;22.24;32.31;97473.56;4958260;28;1108;-76
2023/06/12 06:34:55;;;;;;;;;;;;;;;22.36;32.15;97469.84;4960928;28;1353;-77
2023/06/12 06:37:21;;;;;;;;;;;;;;;22.24;32.06;97473.56;4961015;28;1305;-77
2023/06/12 06:39:47;;;;;;;;;;;;;;;22.42;31.80;97483.41;4976695;28;1202;-77
2023/06/12 06:42:13;;;;;;;;;;;;;;;22.26;32.13;97487.25;4961258;28;1113;-77
2023/06/12 06:44:58;;;;;;;;;;;;;;;22.41;32.23;97493.97;4947055;28;1969;-77
2023/06/12 06:47:23;;;;;;;;;;;;;;;22.24;32.24;97496.22;4977704;28;1190;-77
2023/06/12 06:49:49;;;;;;;;;;;;;;;22.19;32.47;97499.66;4978023;28;1494;-77
2023/06/12 06:52:17;;;;;;;;;;;;;;;22.30;32.54;97505.72;4980626;28;1151;-77
2023/06/12 06:54:42;;;;;;;;;;;;;;;22.49;32.16;97511.50;4979729;28;993;-77
2023/06/12 06:57:12;;;;;;;;;;;;;;;22.40;31.97;97511.44;4964663;28;1196;-77
2023/06/12 06:59:37;;;;;;;;;;;;;;;22.40;32.33;97502.94;5016777;28;1041;-77
2023/06/12 07:02:03;;;;;;;;;;;;;;;22.48;31.98;97515.56;5013784;28;847;-76
2023/06/12 07:04:29;;;;;;;;;;;;;;;22.41;31.91;97515.84;4983014;28;1902;-76
2023/06/12 07:06:55;;;;;;;;;;;;;;;22.50;31.76;97513.88;4980138;28;1135;-77
2023/06/12 07:09:24;;;;;;;;;;;;;;;22.34;32.19;97506.38;4996514;28;1214;-77
2023/06/12 07:11:50;;;;;;;;;;;;;;;22.49;32.00;97512.28;4996632;28;1110;-77
2023/06/12 07:14:16;;;;;;;;;;;;;;;22.58;31.73;97520.03;4996090;28;1129;-77
2023/06/12 07:16:41;;;;;;;;;;;;;;;22.36;32.20;97515.19;4964321;28;1439;-77
2023/06/12 07:19:07;;;;;;;;;;;;;;;22.35;32.05;97513.63;4979740;28;1012;-77
2023/06/12 07:21:32;;;;;;;;;;;;;;;22.55;31.78;97515.31;4964035;28;1198;-77
2023/06/12 07:23:58;;;;;;;;;;;;;;;22.24;32.20;97513.22;4995344;28;1973;-77
2023/06/12 07:26:24;;;;;;;;;;;;;;;22.48;31.70;97509.91;4999150;28;1316;-77
2023/06/12 07:28:50;;;;;;;;;;;;;;;22.62;31.55;97509.38;4999198;28;1063;-77
2023/06/12 07:31:15;;;;;;;;;;;;;;;22.47;31.63;97514.78;5000113;28;1160;-77
2023/06/12 07:33:41;;;;;;;;;;;;;;;22.49;31.73;97511.50;4979311;28;1151;-77
2023/06/12 07:36:07;;;;;;;;;;;;;;;22.33;32.03;97521.81;4980939;28;1244;-76
2023/06/12 07:38:33;;;;;;;;;;;;;;;22.51;31.34;97518.28;4962902;28;1129;-77
2023/06/12 07:40:58;;;;;;;;;;;;;;;22.38;31.77;97525.28;4964118;28;1094;-76
2023/06/12 07:43:25;;;;;;;;;;;;;;;22.27;31.65;97517.94;4947422;28;1979;-77
2023/06/12 07:45:50;;;;;;;;;;;;;;;22.37;31.50;97518.81;4948093;28;1023;-76
2023/06/12 07:48:16;;;;;;;;;;;;;;;22.62;31.20;97512.19;4947593;28;1208;-76
2023/06/12 07:50:46;;;;;;;;;;;;;;;22.56;31.34;97519.72;4980027;28;1143;-76
2023/06/12 07:53:12;;;;;;;;;;;;;;;22.44;31.35;97520.59;4962969;28;920;-77
2023/06/12 07:55:39;;;;;;;;;;;;;;;22.33;31.73;97521.81;4929069;29;1304;-76
2023/06/12 07:58:08;;;;;;;;;;;;;;;22.45;31.31;97516.50;4959336;28;1077;-76
2023/06/12 08:00:35;;;;;;;;;;;;;;;22.50;31.21;97513.09;4979900;28;1098;-76
2023/06/12 08:03:01;;;;;;;;;;;;;;;22.49;31.45;97534.19;4979460;28;1123;-76
2023/06/12 08:05:37;;;;;;;;;;;;;;;22.36;31.72;97525.75;4943501;29;1911;-77
2023/06/12 08:08:09;;;;;;;;;;;;;;;22.32;31.50;97531.53;4944358;29;1148;-77
2023/06/12 08:10:35;;;;;;;;;;;;;;;22.19;31.88;97527.97;4928440;29;923;-77
2023/06/12 08:13:01;;;;;;;;;;;;;;;22.16;31.89;97534.56;4927862;29;1288;-76
2023/06/12 08:15:27;;;;;;;;;;;;;;;22.30;31.46;97539.72;4928399;29;1250;-77
2023/06/12 08:17:53;;;;;;;;;;;;;;;22.26;31.91;97539.06;4943994;29;1132;-77
2023/06/12 08:20:19;;;;;;;;;;;;;;;22.23;32.00;97536.38;4921242;29;1253;-77
2023/06/12 08:22:46;;;;;;;;;;;;;;;22.26;31.89;97544.72;4906498;29;1516;-77
2023/06/12 08:25:13;;;;;;;;;;;;;;;22.39;31.37;97543.88;4905878;29;1914;-77
2023/06/12 08:27:40;;;;;;;;;;;;;;;22.34;31.45;97546.06;4905793;29;1399;-76
2023/06/12 08:30:06;;;;;;;;;;;;;;;22.52;31.15;97544.59;4920925;29;1032;-77
2023/06/12 08:32:31;;;;;;;;;;;;;;;22.65;30.99;97550.19;4902741;29;1274;-77
2023/06/12 08:34:58;;;;;;;;;;;;;;;22.53;31.35;97540.50;4902642;29;1025;-76
2023/06/12 08:37:23;;;;;;;;;;;;;;;22.58;31.03;97537.06;4939806;29;1388;-77
2023/06/12 08:39:49;;;;;;;;;;;;;;;22.39;31.52;97524.03;4959116;29;1191;-76
2023/06/12 08:42:15;;;;;;;;;;;;;;;22.53;31.46;97532.00;4959845;28;1140;-77
2023/06/12 08:44:43;;;;;;;;;;;;;;;22.48;31.24;97526.91;4939856;29;1919;-76
2023/06/12 08:47:08;;;;;;;;;;;;;;;22.35;31.64;97519.28;4939935;29;1723;-77
2023/06/12 08:49:34;;;;;;;;;;;;;;;22.53;31.69;97523.47;4939667;29;950;-77
2023/06/12 08:52:01;;;;;;;;;;;;;;;22.28;31.85;97528.06;4971077;28;1038;-76
2023/06/12 08:54:26;;;;;;;;;;;;;;;22.54;31.50;97533.59;4962354;28;994;-77
2023/06/12 08:56:53;;;;;;;;;;;;;;;22.47;31.54;97531.00;4962682;28;1223;-77
2023/06/12 08:59:19;;;;;;;;;;;;;;;22.35;31.80;97529.84;4946162;28;947;-77
2023/06/12 09:01:50;;;;;;;;;;;;;;;22.43;31.43;97536.00;4978699;28;1213;-77
2023/06/12 09:04:19;;;;;;;;;;;;;;;22.58;31.28;97534.22;4978042;28;1989;-77
2023/06/12 09:06:45;;;;;;;;;;;;;;;22.65;31.29;97536.81;4978221;28;1216;-77
2023/06/12 09:09:11;;;;;;;;;;;;;;;22.42;31.44;97535.22;4963072;28;1410;-77
2023/06/12 09:11:37;;;;;;;;;;;;;;;22.55;31.17;97526.66;4943800;28;989;-77
2023/06/12 09:14:03;;;;;;;;;;;;;;;22.51;31.40;97534.50;4942396;28;1208;-77
2023/06/12 09:16:28;;;;;;;;;;;;;;;22.55;31.30;97529.50;4927514;28;1210;-77
2023/06/12 09:18:54;;;;;;;;;;;;;;;22.41;31.65;97525.16;4942201;28;1073;-77
2023/06/12 09:21:23;;;;;;;;;;;;;;;22.34;31.78;97531.09;4947630;28;1062;-77
2023/06/12 09:23:51;;;;;;;;;;;;;;;22.47;31.75;97528.16;4952615;28;1903;-77
2023/06/12 09:26:18;;;;;;;;;;;;;;;22.35;31.79;97527.78;5001797;28;1021;-77
2023/06/12 09:28:43;;;;;;;;;;;;;;;22.33;31.81;97527.47;5000311;28;1014;-77
2023/06/12 09:31:09;;;;;;;;;;;;;;;22.24;32.07;97524.56;4968671;28;1622;-77
2023/06/12 09:33:39;;;;;;;;;;;;;;;22.34;31.66;97529.03;4999593;28;977;-77
2023/06/12 09:36:04;;;;;;;;;;;;;;;22.10;31.91;97525.03;4984641;28;1375;-77
2023/06/12 09:38:30;;;;;;;;;;;;;;;22.14;31.91;97525.75;5014207;28;931;-77
2023/06/12 09:40:57;;;;;;;;;;;;;;;22.32;31.94;97525.06;5018369;28;1172;-77
2023/06/12 09:43:29;;;;;;;;;;;;;;;22.33;31.83;97521.81;5000787;28;1902;-78
2023/06/12 09:45:55;;;;;;;;;;;;;;;22.57;31.25;97524.13;4986176;28;1133;-78
2023/06/12 09:48:21;;;;;;;;;;;;;;;22.37;31.31;97530.16;5016752;28;1034;-77
2023/06/12 09:50:46;;;;;;;;;;;;;;;22.65;31.06;97524.69;5001706;28;1143;-77
2023/06/12 09:53:12;;;;;;;;;;;;;;;22.64;30.79;97523.88;4984463;28;1238;-77
2023/06/12 09:55:38;;;;;;;;;;;;;;;22.56;31.09;97526.19;5018320;28;874;-77
2023/06/12 09:58:03;;;;;;;;;;;;;;;22.43;31.46;97531.13;5016505;28;956;-77
2023/06/12 10:00:29;;;;;;;;;;;;;;;22.36;31.58;97526.53;5017161;28;874;-77
2023/06/12 10:02:56;;;;;;;;;;;;;;;22.60;31.19;97528.91;5017118;28;977;-77
2023/06/12 10:05:25;;;;;;;;;;;;;;;22.53;31.02;97527.09;5016404;28;1914;-77
2023/06/12 10:07:53;;;;;;;;;;;;;;;22.40;31.07;97525.63;4999878;28;902;-77
2023/06/12 10:10:19;;;;;;;;;;;;;;;22.44;31.48;97526.28;4999940;28;1540;-77
2023/06/12 10:12:44;;;;;;;;;;;;;;;22.36;31.18;97520.84;4999572;28;917;-77
2023/06/12 10:15:10;;;;;;;;;;;;;;;22.25;31.51;97526.13;4999578;28;1942;-77
2023/06/12 10:17:35;;;;;;;;;;;;;;;22.36;31.30;97526.53;5019112;28;921;-77
2023/06/12 10:20:02;;;;;;;;;;;;;;;22.49;31.00;97517.97;5018732;28;921;-77
2023/06/12 10:22:28;;;;;;;;;;;;;;;22.49;31.15;97522.84;5019241;28;892;-77
2023/06/12 10:24:53;;;;;;;;;;;;;;;22.62;30.77;97517.88;5034723;28;1914;-77
2023/06/12 10:27:19;;;;;;;;;;;;;;;22.53;30.90;97517.81;5019139;28;1465;-77
2023/06/12 10:29:44;;;;;;;;;;;;;;;22.36;31.31;97520.84;5034827;28;913;-77
2023/06/12 10:32:10;;;;;;;;;;;;;;;22.50;31.07;97513.09;5019403;28;1310;-77
2023/06/12 10:34:36;;;;;;;;;;;;;;;22.63;30.80;97516.59;5035071;28;1103;-77
2023/06/12 10:37:22;;;;;;;;;;;;;;;22.57;31.26;97501.47;5031881;28;1035;-77
2023/06/12 10:39:48;;;;;;;;;;;;;;;22.34;31.32;97512.03;5036297;28;1304;-76
2023/06/12 10:42:14;;;;;;;;;;;;;;;22.26;31.49;97504.25;5036867;28;921;-77
2023/06/12 10:44:41;;;;;;;;;;;;;;;22.27;31.72;97500.94;5037072;28;1978;-76
2023/06/12 10:47:17;;;;;;;;;;;;;;;22.43;31.43;97499.16;5036852;28;879;-77
2023/06/12 10:49:54;;;;;;;;;;;;;;;22.61;30.92;97511.41;5037375;28;896;-77
2023/06/12 10:52:20;;;;;;;;;;;;;;;22.41;31.67;97510.19;5037450;28;977;-77
2023/06/12 10:54:46;;;;;;;;;;;;;;;22.51;31.09;97520.31;5035697;28;1090;-77
2023/06/12 10:57:11;;;;;;;;;;;;;;;22.43;31.16;97507.66;5037167;28;955;-77
2023/06/12 10:59:37;;;;;;;;;;;;;;;22.52;31.32;97510.56;5034941;28;951;-77
2023/06/12 11:02:03;;;;;;;;;;;;;;;22.38;31.21;97522.44;5037215;28;984;-77
2023/06/12 11:04:34;;;;;;;;;;;;;;;22.60;31.01;97514.72;5036684;28;1902;-78
2023/06/12 11:07:00;;;;;;;;;;;;;;;22.54;31.18;97511.69;5019906;28;1055;-77
2023/06/12 11:09:25;;;;;;;;;;;;;;;22.35;31.45;97513.63;5036114;28;1040;-77
2023/06/12 11:11:51;;;;;;;;;;;;;;;22.44;31.28;97507.22;5022312;28;1246;-77
2023/06/12 11:14:17;;;;;;;;;;;;;;;22.46;31.60;97516.03;5038338;28;1197;-77
2023/06/12 11:16:45;;;;;;;;;;;;;;;22.34;31.49;97508.41;5022085;28;1123;-77
2023/06/12 11:19:11;;;;;;;;;;;;;;;22.79;30.88;97513.53;5022072;28;945;-77
2023/06/12 11:21:37;;;;;;;;;;;;;;;22.65;30.85;97508.44;5022598;28;1119;-77
2023/06/12 11:24:06;;;;;;;;;;;;;;;22.56;31.01;97499.88;5021684;28;2007;-76
2023/06/12 11:26:32;;;;;;;;;;;;;;;22.64;30.97;97501.19;5038774;28;956;-77
2023/06/12 11:29:16;;;;;;;;;;;;;;;22.59;31.28;97493.28;5021478;28;1031;-76
2023/06/12 11:31:46;;;;;;;;;;;;;;;22.53;31.20;97500.81;4998966;28;1238;-77
2023/06/12 11:34:11;;;;;;;;;;;;;;;22.46;31.51;97495.41;4982731;28;935;-77
2023/06/12 11:36:37;;;;;;;;;;;;;;;22.73;30.85;97492.72;4982463;28;1215;-76
2023/06/12 11:39:15;;;;;;;;;;;;;;;22.64;31.07;97492.69;4998296;28;939;-77
2023/06/12 11:41:40;;;;;;;;;;;;;;;22.56;31.21;97485.72;4982623;28;1217;-77
2023/06/12 11:44:06;;;;;;;;;;;;;;;22.31;31.90;97495.94;4962797;28;1907;-77
2023/06/12 11:46:31;;;;;;;;;;;;;;;22.54;31.24;97496.72;4947173;28;1220;-77
2023/06/12 11:49:00;;;;;;;;;;;;;;;22.48;31.44;97504.22;4962519;28;910;-77
2023/06/12 11:51:26;;;;;;;;;;;;;;;22.60;30.96;97483.53;4947240;28;1229;-77
2023/06/12 11:53:51;;;;;;;;;;;;;;;22.73;30.91;97492.72;4962557;28;977;-76
2023/06/12 11:56:17;;;;;;;;;;;;;;;22.56;30.92;97494.22;4978733;28;999;-76
2023/06/12 11:58:44;;;;;;;;;;;;;;;22.59;31.08;97479.13;4958880;29;1442;-77
2023/06/12 12:01:10;;;;;;;;;;;;;;;22.69;30.94;97485.59;4943790;29;1077;-78
2023/06/12 12:03:37;;;;;;;;;;;;;;;22.61;30.91;97480.22;4942415;29;1982;-77
2023/06/12 12:06:02;;;;;;;;;;;;;;;22.33;31.56;97482.13;4909042;29;1031;-77
2023/06/12 12:08:28;;;;;;;;;;;;;;;22.57;30.85;97478.78;4908348;29;1231;-77
2023/06/12 12:10:54;;;;;;;;;;;;;;;22.70;30.92;97470.19;4908999;29;1481;-77
2023/06/12 12:13:19;;;;;;;;;;;;;;;22.53;30.98;97481.75;4932247;28;949;-77
2023/06/12 12:15:45;;;;;;;;;;;;;;;22.52;31.15;97476.53;4979196;28;978;-77
2023/06/12 12:18:12;;;;;;;;;;;;;;;22.51;31.00;97469.28;4978532;28;1073;-77
2023/06/12 12:20:37;;;;;;;;;;;;;;;22.48;31.01;97475.88;4952220;28;1176;-77
2023/06/12 12:23:04;;;;;;;;;;;;;;;22.56;30.84;97474.38;5016907;28;911;-76
2023/06/12 12:25:31;;;;;;;;;;;;;;;22.55;30.90;97481.28;4985271;28;1914;-77
2023/06/12 12:27:59;;;;;;;;;;;;;;;22.43;31.11;97476.47;5001205;28;1177;-77
2023/06/12 12:30:25;;;;;;;;;;;;;;;22.43;31.26;97479.31;5014482;28;1002;-77
2023/06/12 12:32:52;;;;;;;;;;;;;;;22.46;30.90;97484.06;5021650;28;995;-76
2023/06/12 12:35:18;;;;;;;;;;;;;;;22.36;31.05;97478.34;5038570;28;938;-77
2023/06/12 12:37:44;;;;;;;;;;;;;;;22.60;30.57;97477.84;4981787;28;1263;-77
2023/06/12 12:40:10;;;;;;;;;;;;;;;22.41;31.12;97484.66;4965005;28;1123;-77
2023/06/12 12:42:39;;;;;;;;;;;;;;;22.64;30.88;97484.19;4998054;28;1002;-77
2023/06/12 12:45:05;;;;;;;;;;;;;;;22.67;30.86;97482.44;4981162;28;1914;-77
2023/06/12 12:47:31;;;;;;;;;;;;;;;22.63;30.63;97479.75;4978301;28;1026;-77
2023/06/12 12:49:56;;;;;;;;;;;;;;;22.62;30.67;97483.84;4961494;28;1031;-77
2023/06/12 12:52:22;;;;;;;;;;;;;;;22.75;30.35;97478.88;4978430;28;977;-78
2023/06/12 12:54:47;;;;;;;;;;;;;;;22.55;30.69;97478.47;4962215;28;994;-77
2023/06/12 12:57:13;;;;;;;;;;;;;;;22.42;30.84;97494.75;4977862;28;968;-77
2023/06/12 12:59:38;;;;;;;;;;;;;;;22.38;30.96;97485.59;4977948;28;1141;-77